Time;durP1;ratioP1;P1;durP2;ratioP2;P2;SDS_P1;SDS_P2;PMS_P1;PMS_P2;Temp;Humidity;BMP_temperature;BMP_pressure;BME280_temperature;BME280_humidity;BME280_pressure;Samples;Min_cycle;Max_cycle;Signal;HPM_P1;HPM_P2
2024/02/06 00:02:37;;;;;;;24.80;16.75;;;;;;;5.83;100.00;100163.28;10450697;28;20048;-81
2024/02/06 00:07:40;;;;;;;21.73;15.45;;;;;;;5.75;100.00;100149.59;10424373;28;20061;-81
2024/02/06 00:12:43;;;;;;;25.13;17.17;;;;;;;5.73;100.00;100143.50;10430426;28;20053;-81
2024/02/06 00:17:47;;;;;;;18.08;11.20;;;;;;;5.89;100.00;100156.69;10450926;28;20052;-82
2024/02/06 00:22:50;;;;;;;28.70;16.48;;;;;;;5.86;100.00;100139.06;10412257;28;20539;-82
2024/02/06 00:27:53;;;;;;;20.25;12.30;;;;;;;5.73;100.00;100147.03;10450628;28;20049;-81
2024/02/06 00:32:57;;;;;;;25.13;14.55;;;;;;;5.86;100.00;100165.72;10452264;28;20048;-83
2024/02/06 00:38:01;;;;;;;30.20;16.88;;;;;;;5.81;100.00;100140.34;10443068;28;20051;-83
2024/02/06 00:43:04;;;;;;;25.38;14.43;;;;;;;5.77;100.00;100130.84;10455995;28;20055;-83
2024/02/06 00:48:08;;;;;;;26.05;15.13;;;;;;;5.80;100.00;100138.63;10439209;28;20056;-82
2024/02/06 00:53:12;;;;;;;25.20;16.02;;;;;;;6.10;100.00;100112.63;10431200;28;20071;-81
2024/02/06 00:58:15;;;;;;;23.73;14.55;;;;;;;5.98;100.00;100099.22;10435597;28;20059;-80
2024/02/06 01:03:19;;;;;;;27.42;17.75;;;;;;;6.09;100.00;100096.75;10440037;28;20530;-81
2024/02/06 01:08:22;;;;;;;25.95;12.15;;;;;;;6.03;100.00;100094.44;10433659;28;20060;-81
2024/02/06 01:13:25;;;;;;;28.48;18.70;;;;;;;5.98;100.00;100076.13;10442710;28;20076;-79
2024/02/06 01:18:30;;;;;;;25.27;15.77;;;;;;;5.77;100.00;100088.19;10429266;28;20052;-81
2024/02/06 01:23:33;;;;;;;23.90;16.65;;;;;;;5.93;100.00;100087.06;10442293;28;20050;-80
2024/02/06 01:28:36;;;;;;;31.05;17.35;;;;;;;6.18;100.00;100075.63;10436443;28;20178;-82
2024/02/06 01:33:40;;;;;;;23.13;15.02;;;;;;;6.22;100.00;100070.06;10426871;28;20094;-82
2024/02/06 01:38:43;;;;;;;23.00;15.05;;;;;;;6.11;100.00;100068.97;10435796;28;20132;-81
2024/02/06 01:43:46;;;;;;;17.60;11.95;;;;;;;5.94;100.00;100085.25;10425505;28;20049;-82
2024/02/06 01:48:51;;;;;;;28.13;14.93;;;;;;;5.89;100.00;100060.72;10421907;28;20056;-83
2024/02/06 01:53:55;;;;;;;23.23;14.27;;;;;;;6.47;100.00;100066.56;10450403;28;20577;-81
2024/02/06 01:58:58;;;;;;;17.02;10.88;;;;;;;6.27;100.00;100062.63;10414818;28;20126;-81
2024/02/06 02:04:03;;;;;;;23.70;15.60;;;;;;;6.35;100.00;100044.28;10422313;28;20116;-81
2024/02/06 02:09:08;;;;;;;19.73;13.57;;;;;;;6.25;100.00;100065.38;10417136;28;20542;-82
2024/02/06 02:14:11;;;;;;;20.50;11.82;;;;;;;6.33;100.00;100052.38;10426283;28;20060;-81
2024/02/06 02:19:16;;;;;;;21.40;15.57;;;;;;;6.10;100.00;100045.94;10451225;28;20052;-83
2024/02/06 02:24:20;;;;;;;23.63;10.15;;;;;;;6.03;100.00;100041.13;10440477;28;20541;-82
2024/02/06 02:29:25;;;;;;;24.30;15.07;;;;;;;6.64;100.00;100031.59;10436513;28;20049;-83
2024/02/06 02:34:28;;;;;;;22.95;15.05;;;;;;;6.55;100.00;100017.03;10430060;28;20095;-80
2024/02/06 02:39:32;;;;;;;25.55;14.02;;;;;;;6.48;100.00;100009.59;10438358;28;20511;-82
2024/02/06 02:44:35;;;;;;;22.80;14.15;;;;;;;6.16;100.00;99986.00;10456894;28;20574;-83
2024/02/06 02:49:38;;;;;;;23.85;13.60;;;;;;;6.30;100.00;99979.72;10456732;28;20040;-82
2024/02/06 02:54:43;;;;;;;28.30;13.85;;;;;;;6.36;100.00;99973.94;10423819;28;20600;-80
2024/02/06 02:59:46;;;;;;;29.38;15.73;;;;;;;6.46;100.00;99983.00;10429344;28;20229;-81
2024/02/06 03:04:49;;;;;;;15.63;11.13;;;;;;;6.12;100.00;99988.03;10428030;28;20060;-81
2024/02/06 03:09:53;;;;;;;22.75;14.95;;;;;;;6.40;100.00;99975.44;10420578;28;20103;-82
2024/02/06 03:14:56;;;;;;;24.65;13.38;;;;;;;6.22;100.00;99971.38;10431992;28;20595;-81
2024/02/06 03:20:01;;;;;;;30.38;17.45;;;;;;;6.21;100.00;99953.69;10413656;28;20139;-81
2024/02/06 03:25:07;;;;;;;26.92;16.55;;;;;;;6.47;100.00;99957.19;10428101;28;20194;-81
2024/02/06 03:30:11;;;;;;;17.58;11.38;;;;;;;6.09;100.00;99934.91;10424655;28;20081;-83
2024/02/06 03:35:14;;;;;;;22.02;11.13;;;;;;;6.12;100.00;99979.19;10431941;28;20610;-82
2024/02/06 03:40:19;;;;;;;19.00;12.60;;;;;;;6.21;100.00;99933.19;10417816;28;20075;-81
2024/02/06 03:45:22;;;;;;;19.77;11.95;;;;;;;6.14;100.00;99931.91;10419905;28;20044;-79
2024/02/06 03:50:25;;;;;;;24.58;15.60;;;;;;;6.23;100.00;99941.09;10417337;28;20053;-80
2024/02/06 03:55:29;;;;;;;24.92;11.52;;;;;;;6.38;100.00;99927.50;10413600;28;20060;-82
2024/02/06 04:00:32;;;;;;;23.75;15.95;;;;;;;6.27;100.00;99927.41;10410990;28;20056;-81
2024/02/06 04:05:35;;;;;;;21.13;13.27;;;;;;;6.24;100.00;99919.66;10426711;28;20423;-81
2024/02/06 04:10:40;;;;;;;28.33;15.60;;;;;;;6.44;100.00;99920.03;10434339;28;20048;-80
2024/02/06 04:15:43;;;;;;;20.48;11.77;;;;;;;6.38;100.00;99916.84;10449093;28;20059;-81
2024/02/06 04:20:46;;;;;;;17.90;10.80;;;;;;;6.03;100.00;99934.47;10423126;28;20114;-82
2024/02/06 04:25:50;;;;;;;16.80;10.85;;;;;;;6.32;100.00;99919.97;10398600;28;20153;-81
2024/02/06 04:30:53;;;;;;;30.50;13.65;;;;;;;6.33;100.00;99915.47;10413214;28;22506;-81
2024/02/06 04:35:56;;;;;;;18.88;11.43;;;;;;;6.24;100.00;99916.97;10415395;28;20101;-81
2024/02/06 04:41:01;;;;;;;21.50;12.38;;;;;;;6.32;100.00;99909.28;10420622;28;20061;-81
2024/02/06 04:46:04;;;;;;;17.05;10.75;;;;;;;6.37;100.00;99893.81;10424698;28;20044;-80
2024/02/06 04:51:07;;;;;;;20.38;12.35;;;;;;;6.39;100.00;99902.56;10410965;28;20102;-81
2024/02/06 04:56:14;;;;;;;19.13;8.35;;;;;;;6.09;100.00;99894.06;10421911;28;20136;-83
2024/02/06 05:01:18;;;;;;;18.10;12.80;;;;;;;6.33;100.00;99888.78;10406442;28;20835;-83
2024/02/06 05:06:21;;;;;;;14.45;8.35;;;;;;;6.34;100.00;99895.84;10412155;28;20049;-83
2024/02/06 05:11:26;;;;;;;22.50;11.35;;;;;;;6.40;100.00;99900.75;10417961;28;20041;-80
2024/02/06 05:16:29;;;;;;;24.23;10.68;;;;;;;6.46;100.00;99883.44;10444503;28;20040;-81
2024/02/06 05:21:32;;;;;;;16.38;8.98;;;;;;;6.55;100.00;99878.28;10436152;28;20052;-81
2024/02/06 05:26:36;;;;;;;16.98;10.82;;;;;;;6.35;100.00;99890.38;10431679;28;21769;-80
2024/02/06 05:31:39;;;;;;;21.33;11.82;;;;;;;6.61;100.00;99867.19;10429529;28;20431;-81
2024/02/06 05:36:42;;;;;;;21.10;12.32;;;;;;;6.66;100.00;99869.50;10431306;28;20144;-81
2024/02/06 05:41:47;;;;;;;24.50;13.20;;;;;;;6.50;100.00;99863.56;10417528;28;21168;-81
2024/02/06 05:46:49;;;;;;;21.90;11.07;;;;;;;6.22;100.00;99862.03;10442657;28;20044;-79
2024/02/06 05:51:52;;;;;;;22.05;11.80;;;;;;;6.46;100.00;99846.09;10433127;28;20045;-80
2024/02/06 05:56:57;;;;;;;21.23;11.07;;;;;;;6.12;100.00;99853.84;10431727;28;20128;-80
2024/02/06 06:02:00;;;;;;;25.70;16.60;;;;;;;6.44;100.00;99850.69;10432038;28;20705;-81
2024/02/06 06:07:03;;;;;;;21.13;10.52;;;;;;;6.14;100.00;99860.78;10410374;28;20534;-81
2024/02/06 06:12:08;;;;;;;19.50;13.65;;;;;;;6.28;100.00;99838.47;10442082;28;20048;-80
2024/02/06 06:17:11;;;;;;;18.02;10.48;;;;;;;6.22;100.00;99854.03;10436238;28;20048;-82
2024/02/06 06:22:15;;;;;;;19.10;11.18;;;;;;;6.06;100.00;99839.13;10395612;28;20851;-82
2024/02/06 06:27:19;;;;;;;23.05;13.25;;;;;;;6.08;100.00;99823.84;10423162;28;20063;-81
2024/02/06 06:32:22;;;;;;;21.25;11.65;;;;;;;6.15;100.00;99858.97;10414451;28;20045;-82
2024/02/06 06:37:25;;;;;;;26.50;15.82;;;;;;;6.36;100.00;99829.88;10432561;28;20407;-82
2024/02/06 06:42:29;;;;;;;20.45;13.07;;;;;;;6.36;100.00;99829.88;10447809;28;20045;-80
2024/02/06 06:47:33;;;;;;;22.13;13.48;;;;;;;6.35;100.00;99817.53;10438068;28;20049;-81
2024/02/06 06:52:39;;;;;;;15.27;11.15;;;;;;;6.50;100.00;99839.56;10420671;28;20516;-80
2024/02/06 06:57:44;;;;;;;22.00;14.98;;;;;;;6.54;100.00;99825.03;10429077;28;20056;-82
2024/02/06 07:02:47;;;;;;;25.77;10.93;;;;;;;5.94;100.00;99826.66;10423072;28;20085;-81
2024/02/06 07:07:50;;;;;;;16.85;11.18;;;;;;;6.33;100.00;99816.78;10461254;28;21265;-82
2024/02/06 07:12:54;;;;;;;27.83;15.02;;;;;;;6.43;100.00;99816.97;10427961;28;20044;-82
2024/02/06 07:17:57;;;;;;;23.38;15.45;;;;;;;6.47;100.00;99835.28;10458755;28;20132;-80
2024/02/06 07:23:00;;;;;;;26.98;12.40;;;;;;;6.21;100.00;99805.19;10448729;28;20045;-82
2024/02/06 07:28:06;;;;;;;30.48;16.75;;;;;;;6.16;100.00;99804.66;10446739;28;20052;-80
2024/02/06 07:33:09;;;;;;;37.45;10.85;;;;;;;6.27;100.00;99791.38;10431733;28;20040;-82
2024/02/06 07:38:12;;;;;;;19.60;11.98;;;;;;;6.31;100.00;99813.38;10431420;28;20052;-81
2024/02/06 07:43:17;;;;;;;16.77;11.35;;;;;;;6.08;100.00;99793.69;10429026;28;20056;-81
2024/02/06 07:48:22;;;;;;;19.27;11.20;;;;;;;6.30;100.00;99790.31;10415866;28;21549;-82
2024/02/06 07:53:26;;;;;;;24.60;13.30;;;;;;;6.25;100.00;99793.31;10412761;28;20041;-80
2024/02/06 07:58:30;;;;;;;18.13;9.25;;;;;;;6.40;100.00;99783.34;10417773;28;20045;-82
2024/02/06 08:03:33;;;;;;;16.48;13.05;;;;;;;6.35;100.00;99780.16;10431756;28;20041;-83
2024/02/06 08:08:37;;;;;;;18.20;10.60;;;;;;;6.62;100.00;99795.97;10442474;28;20127;-83
2024/02/06 08:13:43;;;;;;;20.50;11.88;;;;;;;6.38;100.00;99779.94;10444196;28;20178;-82
2024/02/06 08:18:46;;;;;;;17.15;10.13;;;;;;;6.32;100.00;99799.91;10430297;28;20040;-82
2024/02/06 08:23:50;;;;;;;21.83;11.73;;;;;;;6.50;100.00;99776.41;10438387;28;20128;-81
2024/02/06 08:28:54;;;;;;;16.45;10.80;;;;;;;6.43;100.00;99783.13;10429452;28;20096;-81
2024/02/06 08:33:59;;;;;;;27.65;17.10;;;;;;;6.74;100.00;99779.03;10424259;28;20052;-81
2024/02/06 08:39:02;;;;;;;23.63;12.48;;;;;;;6.49;100.00;99784.50;10424157;28;20055;-80
2024/02/06 08:44:08;;;;;;;33.08;16.13;;;;;;;6.89;100.00;99761.06;10420207;28;20437;-79
2024/02/06 08:49:11;;;;;;;13.55;9.18;;;;;;;6.43;100.00;99777.78;10404836;28;20049;-79
2024/02/06 08:54:14;;;;;;;22.75;11.80;;;;;;;6.75;100.00;99782.59;10409657;28;20048;-79
2024/02/06 08:59:19;;;;;;;16.85;11.48;;;;;;;6.69;100.00;99785.69;10418780;28;20046;-80
2024/02/06 09:04:22;;;;;;;23.40;11.68;;;;;;;6.84;100.00;99749.84;10408265;28;20060;-80
2024/02/06 09:09:25;;;;;;;13.02;9.00;;;;;;;6.69;100.00;99764.31;10434670;28;20091;-80
2024/02/06 09:14:29;;;;;;;23.33;13.40;;;;;;;6.90;100.00;99743.22;10435331;28;20049;-79
2024/02/06 09:19:36;;;;;;;18.63;9.35;;;;;;;6.73;100.00;99757.81;10423098;28;20055;-81
2024/02/06 09:24:44;;;;;;;23.60;13.32;;;;;;;6.95;100.00;99752.59;10426603;28;20054;-80
2024/02/06 09:29:48;;;;;;;19.15;11.43;;;;;;;6.83;100.00;99745.47;10448657;28;20179;-82
2024/02/06 09:34:52;;;;;;;18.55;12.02;;;;;;;6.90;100.00;99732.53;10434739;28;20048;-80
2024/02/06 09:40:00;;;;;;;19.55;9.57;;;;;;;6.94;100.00;99742.00;10459574;28;20503;-81
2024/02/06 09:45:07;;;;;;;11.35;9.50;;;;;;;6.84;100.00;99734.66;10422541;28;20049;-82
2024/02/06 09:50:11;;;;;;;15.40;6.68;;;;;;;7.18;100.00;99734.78;10420804;28;20644;-80
2024/02/06 09:55:15;;;;;;;13.55;7.78;;;;;;;6.80;100.00;99740.34;10435341;28;20048;-81
2024/02/06 10:00:21;;;;;;;16.40;7.40;;;;;;;7.03;100.00;99747.50;10414537;28;20704;-82
2024/02/06 10:05:28;;;;;;;16.45;10.57;;;;;;;7.14;100.00;99740.50;10415335;28;20053;-80
2024/02/06 10:10:31;;;;;;;18.80;8.73;;;;;;;7.12;100.00;99711.22;10419503;28;20068;-80
2024/02/06 10:15:36;;;;;;;19.25;9.07;;;;;;;6.99;100.00;99707.78;10411203;28;20128;-80
2024/02/06 10:20:43;;;;;;;13.23;9.30;;;;;;;7.15;100.00;99704.78;10433184;28;20427;-80
2024/02/06 10:25:50;;;;;;;16.02;9.00;;;;;;;7.26;100.00;99710.16;10448555;28;20044;-80
2024/02/06 10:30:55;;;;;;;19.10;10.32;;;;;;;7.36;100.00;99712.97;10440434;28;20045;-82
2024/02/06 10:36:02;;;;;;;16.55;8.27;;;;;;;7.17;100.00;99718.88;10424190;28;20566;-80
2024/02/06 10:41:08;;;;;;;14.05;7.80;;;;;;;7.27;100.00;99695.84;10440515;28;20044;-81
2024/02/06 10:46:27;;;;;;;15.30;8.25;;;;;;;7.57;100.00;99697.06;10415030;28;20041;-80
2024/02/06 10:51:30;;;;;;;16.00;9.38;;;;;;;7.41;100.00;99681.41;10425047;28;20053;-79
2024/02/06 10:56:37;;;;;;;14.40;8.55;;;;;;;7.43;100.00;99717.72;10414907;28;20088;-79
2024/02/06 11:01:41;;;;;;;12.32;7.45;;;;;;;7.30;100.00;99686.75;10440371;28;20521;-78
2024/02/06 11:06:53;;;;;;;12.25;5.90;;;;;;;7.52;100.00;99672.53;10434548;28;20056;-79
2024/02/06 11:11:58;;;;;;;10.30;5.18;;;;;;;7.46;100.00;99652.47;10449552;28;20043;-79
2024/02/06 11:17:04;;;;;;;13.68;7.18;;;;;;;7.79;100.00;99656.97;10455630;28;20762;-80
2024/02/06 11:22:13;;;;;;;13.90;6.93;;;;;;;7.81;100.00;99664.84;10432787;28;20442;-78
2024/02/06 11:27:17;;;;;;;10.98;6.70;;;;;;;8.29;100.00;99659.97;10451449;28;20352;-80
2024/02/06 11:32:21;;;;;;;9.82;4.57;;;;;;;8.06;100.00;99650.31;10426626;28;20154;-80
2024/02/06 11:37:27;;;;;;;5.32;4.03;;;;;;;7.91;100.00;99658.63;10411329;28;20040;-78
2024/02/06 11:42:30;;;;;;;10.25;4.00;;;;;;;7.94;100.00;99639.66;10413288;28;20692;-79
2024/02/06 11:47:35;;;;;;;7.05;4.25;;;;;;;8.23;100.00;99625.72;10424313;28;20048;-79
2024/02/06 11:52:38;;;;;;;7.75;3.45;;;;;;;8.20;100.00;99631.31;10430889;28;20069;-79
2024/02/06 11:57:41;;;;;;;5.18;3.35;;;;;;;8.01;100.00;99607.91;10436141;28;20044;-80
2024/02/06 12:02:51;;;;;;;5.93;4.05;;;;;;;8.16;100.00;99595.91;10429032;28;20041;-79
2024/02/06 12:07:55;;;;;;;8.30;4.55;;;;;;;8.28;100.00;99578.00;10432686;28;20056;-80
2024/02/06 12:13:04;;;;;;;12.60;6.80;;;;;;;8.45;100.00;99573.91;10426347;28;20048;-80
2024/02/06 12:18:12;;;;;;;9.75;6.20;;;;;;;8.45;100.00;99557.84;10421492;28;20068;-80
2024/02/06 12:23:15;;;;;;;12.13;6.82;;;;;;;8.41;100.00;99577.81;10421854;28;20708;-79
2024/02/06 12:28:18;;;;;;;9.07;5.40;;;;;;;8.39;100.00;99569.94;10450651;28;20667;-81
2024/02/06 12:33:23;;;;;;;10.00;6.20;;;;;;;8.24;100.00;99567.69;10473488;28;20065;-79
2024/02/06 12:38:26;;;;;;;8.95;6.13;;;;;;;8.45;100.00;99573.91;10439659;28;20044;-80
2024/02/06 12:43:29;;;;;;;12.00;6.00;;;;;;;8.11;100.00;99626.72;10435863;28;20060;-80
2024/02/06 12:48:34;;;;;;;7.68;5.13;;;;;;;8.29;100.00;99565.47;10431692;28;20864;-80
2024/02/06 12:53:37;;;;;;;12.00;6.57;;;;;;;8.40;100.00;99544.84;10433167;28;20060;-80
2024/02/06 12:58:40;;;;;;;10.80;6.03;;;;;;;8.30;100.00;99543.09;10428610;28;20052;-79
2024/02/06 13:03:45;;;;;;;6.32;4.72;;;;;;;8.34;100.00;99556.09;10429858;28;21116;-79
2024/02/06 13:08:50;;;;;;;10.80;6.53;;;;;;;8.33;100.00;99538.31;10434583;28;20048;-79
2024/02/06 13:13:55;;;;;;;16.88;7.72;;;;;;;8.53;100.00;99522.41;10436923;28;20045;-79
2024/02/06 13:19:00;;;;;;;8.70;6.07;;;;;;;8.48;100.00;99509.44;10443500;28;20056;-79
2024/02/06 13:24:06;;;;;;;11.55;5.72;;;;;;;8.75;100.00;99521.38;10433235;28;20037;-78
2024/02/06 13:29:10;;;;;;;9.40;4.53;;;;;;;8.60;100.00;99489.63;10432406;28;20049;-80
2024/02/06 13:34:14;;;;;;;11.45;5.88;;;;;;;8.51;100.00;99509.16;10427826;28;20054;-78
2024/02/06 13:39:19;;;;;;;7.60;4.88;;;;;;;8.36;100.00;99489.03;10450815;28;20057;-80
2024/02/06 13:44:21;;;;;;;8.82;4.07;;;;;;;8.15;100.00;99532.72;10429913;28;20059;-82
2024/02/06 13:49:26;;;;;;;7.70;4.65;;;;;;;7.85;100.00;99477.31;10444998;28;20052;-79
2024/02/06 13:54:29;;;;;;;7.75;4.40;;;;;;;7.79;100.00;99480.50;10472165;28;20040;-80
2024/02/06 13:59:32;;;;;;;11.82;7.70;;;;;;;7.69;100.00;99474.22;10456404;28;20055;-82
2024/02/06 14:04:39;;;;;;;13.95;8.77;;;;;;;7.43;100.00;99489.72;10452284;28;20079;-80
2024/02/06 14:09:42;;;;;;;12.35;7.97;;;;;;;7.40;100.00;99468.59;10456582;28;20066;-83
2024/02/06 14:14:45;;;;;;;15.00;9.52;;;;;;;7.54;100.00;99443.41;10447797;28;20048;-81
2024/02/06 14:19:49;;;;;;;16.13;9.48;;;;;;;7.43;100.00;99460.31;10434583;28;20504;-82
2024/02/06 14:24:52;;;;;;;16.60;10.18;;;;;;;7.46;100.00;99457.41;10414462;28;20049;-81
2024/02/06 14:29:55;;;;;;;20.95;10.25;;;;;;;7.30;100.00;99436.47;10448411;28;21204;-84
2024/02/06 14:35:00;;;;;;;19.05;8.15;;;;;;;7.39;100.00;99433.03;10431922;28;20401;-82
2024/02/06 14:40:04;;;;;;;17.58;11.32;;;;;;;7.40;100.00;99407.16;10450605;28;20048;-80
2024/02/06 14:45:07;;;;;;;22.75;11.95;;;;;;;7.97;100.00;99416.59;10452133;28;20044;-81
2024/02/06 14:50:12;;;;;;;19.10;10.77;;;;;;;7.70;100.00;99409.06;10455650;28;20063;-81
2024/02/06 14:55:17;;;;;;;15.55;7.05;;;;;;;7.64;100.00;99398.91;10458221;28;20049;-80
2024/02/06 15:00:21;;;;;;;13.68;7.60;;;;;;;7.71;100.00;99387.56;10435186;28;20074;-80
2024/02/06 15:05:25;;;;;;;13.77;8.75;;;;;;;7.85;100.00;99428.34;10446458;28;20106;-80
2024/02/06 15:10:32;;;;;;;17.02;5.65;;;;;;;8.17;100.00;99399.69;10434401;28;20057;-79
2024/02/06 15:15:35;;;;;;;9.15;7.75;;;;;;;8.23;100.00;99405.44;10465007;28;20037;-80
2024/02/06 15:20:39;;;;;;;13.45;6.65;;;;;;;8.13;100.00;99376.00;10465396;28;20059;-81
2024/02/06 15:25:43;;;;;;;15.32;6.88;;;;;;;8.23;100.00;99382.25;10427518;28;21368;-81
2024/02/06 15:30:46;;;;;;;18.23;8.25;;;;;;;7.82;100.00;99373.28;10417958;28;20076;-80
2024/02/06 15:35:50;;;;;;;19.88;9.27;;;;;;;8.15;100.00;99382.91;10440995;28;20049;-81
2024/02/06 15:40:53;;;;;;;15.45;7.68;;;;;;;7.84;100.00;99379.34;10459826;28;20049;-79
2024/02/06 15:45:57;;;;;;;15.98;8.98;;;;;;;8.15;100.00;99390.94;10429919;28;20053;-80
2024/02/06 15:51:01;;;;;;;9.63;5.53;;;;;;;7.91;100.00;99356.44;10459369;28;20089;-80
2024/02/06 15:56:04;;;;;;;16.90;7.10;;;;;;;8.04;100.00;99350.06;10459757;28;20049;-77
2024/02/06 16:01:07;;;;;;;10.00;6.07;;;;;;;8.07;100.00;99339.09;10444130;28;20126;-81
2024/02/06 16:06:12;;;;;;;13.75;5.03;;;;;;;8.27;100.00;99319.44;10393411;28;20130;-79
2024/02/06 16:11:15;;;;;;;16.00;6.28;;;;;;;8.03;100.00;99353.69;10412362;28;20047;-80
2024/02/06 16:16:19;;;;;;;14.98;7.00;;;;;;;7.92;100.00;99333.22;10417228;28;20609;-78
2024/02/06 16:21:24;;;;;;;13.90;5.70;;;;;;;7.89;100.00;99325.47;10402019;28;20054;-80
2024/02/06 16:26:27;;;;;;;9.48;4.78;;;;;;;8.04;100.00;99315.28;10435691;28;20037;-80
2024/02/06 16:31:33;;;;;;;9.98;5.03;;;;;;;7.94;100.00;99331.28;10421269;28;20049;-79
2024/02/06 16:36:38;;;;;;;11.85;5.05;;;;;;;7.75;100.00;99307.97;10450947;28;20048;-80
2024/02/06 16:41:41;;;;;;;10.85;5.38;;;;;;;8.08;100.00;99340.78;10448085;28;20045;-80
2024/02/06 16:46:46;;;;;;;5.95;5.00;;;;;;;8.01;100.00;99323.56;10435811;28;20389;-79
2024/02/06 16:51:51;;;;;;;16.40;7.40;;;;;;;8.19;100.00;99332.66;10440284;28;20052;-80
2024/02/06 16:56:54;;;;;;;11.48;5.55;;;;;;;8.13;100.00;99336.72;10443568;28;20534;-76
2024/02/06 17:01:57;;;;;;;12.65;6.03;;;;;;;7.46;100.00;99345.19;10412541;28;20047;-77
2024/02/06 17:07:01;;;;;;;12.77;6.63;;;;;;;7.52;100.00;99331.31;10445890;28;20052;-78
2024/02/06 17:12:05;;;;;;;13.02;5.68;;;;;;;7.17;100.00;99299.56;10451879;28;20048;-78
2024/02/06 17:17:08;;;;;;;14.10;6.40;;;;;;;7.50;100.00;99320.75;10445738;28;20052;-79
2024/02/06 17:22:14;;;;;;;9.13;5.90;;;;;;;7.20;100.00;99331.34;10434317;28;20057;-81
2024/02/06 17:27:18;;;;;;;16.45;11.90;;;;;;;7.22;100.00;99345.44;10440407;28;20048;-79
2024/02/06 17:32:21;;;;;;;15.63;8.38;;;;;;;7.23;100.00;99339.94;10443199;28;20040;-78
2024/02/06 17:37:25;;;;;;;17.73;9.13;;;;;;;7.27;100.00;99348.56;10437001;28;20108;-80
2024/02/06 17:42:29;;;;;;;10.55;8.70;;;;;;;7.40;100.00;99340.34;10435107;28;20083;-80
2024/02/06 17:47:32;;;;;;;15.93;9.98;;;;;;;7.23;100.00;99347.97;10419097;28;20183;-79
2024/02/06 17:52:37;;;;;;;17.67;9.65;;;;;;;7.35;100.00;99347.91;10420664;28;20108;-79
2024/02/06 17:57:40;;;;;;;13.13;8.23;;;;;;;7.36;100.00;99296.19;10436650;28;20041;-79
2024/02/06 18:02:43;;;;;;;17.95;12.93;;;;;;;7.28;100.00;99300.34;10425461;28;20059;-80
2024/02/06 18:07:59;;;;;;;27.75;16.70;;;;;;;7.25;100.00;99331.81;10424498;28;20052;-80
2024/02/06 18:13:03;;;;;;;26.30;13.85;;;;;;;7.24;100.00;99324.78;10455067;28;20049;-79
2024/02/06 18:18:06;;;;;;;18.35;9.85;;;;;;;7.50;100.00;99317.25;10442218;28;20593;-81
2024/02/06 18:23:10;;;;;;;29.42;12.43;;;;;;;7.35;100.00;99299.81;10436549;28;20176;-80
2024/02/06 18:28:13;;;;;;;26.60;17.30;;;;;;;7.34;100.00;99292.78;10436292;28;20112;-80
2024/02/06 18:33:16;;;;;;;23.73;12.95;;;;;;;7.46;100.00;99299.75;10429018;28;20056;-80
2024/02/06 18:38:21;;;;;;;16.10;8.65;;;;;;;7.20;100.00;99289.47;10457022;28;20044;-79
2024/02/06 18:43:24;;;;;;;22.52;14.48;;;;;;;7.53;100.00;99303.59;10426755;28;20044;-82
2024/02/06 18:48:28;;;;;;;23.52;13.52;;;;;;;7.47;100.00;99288.09;10449984;28;20428;-80
2024/02/06 18:53:34;;;;;;;25.85;12.57;;;;;;;7.64;100.00;99278.63;10444864;28;20063;-80
2024/02/06 18:58:37;;;;;;;18.48;10.85;;;;;;;7.56;100.00;99281.97;10455724;28;20744;-80
2024/02/06 19:03:40;;;;;;;17.63;10.73;;;;;;;7.95;100.00;99256.28;10444274;28;20052;-79
2024/02/06 19:08:45;;;;;;;21.48;12.93;;;;;;;7.75;100.00;99226.91;10429231;28;20044;-80
2024/02/06 19:13:48;;;;;;;26.98;13.43;;;;;;;7.90;100.00;99238.94;10467338;28;20047;-81
2024/02/06 19:18:51;;;;;;;20.38;10.88;;;;;;;8.01;100.00;99240.66;10442615;28;20051;-80
2024/02/06 19:23:55;;;;;;;15.60;9.70;;;;;;;8.26;100.00;99208.09;10436869;28;20087;-80
2024/02/06 19:28:59;;;;;;;16.15;7.28;;;;;;;8.26;100.00;99237.50;10461733;28;20072;-81
2024/02/06 19:34:02;;;;;;;21.85;7.40;;;;;;;8.16;100.00;99239.31;10445878;28;20052;-80
2024/02/06 19:39:08;;;;;;;21.98;8.43;;;;;;;8.42;100.00;99206.66;10436914;28;20079;-79
2024/02/06 19:44:11;;;;;;;18.52;4.78;;;;;;;8.33;100.00;99203.00;10452495;28;20051;-80
2024/02/06 19:49:14;;;;;;;15.77;7.78;;;;;;;8.28;100.00;99190.06;10464389;28;20681;-81
2024/02/06 19:54:19;;;;;;;14.13;6.75;;;;;;;8.44;100.00;99177.94;10498291;28;20056;-81
2024/02/06 19:59:22;;;;;;;16.80;7.65;;;;;;;8.36;100.00;99173.28;10449890;28;20060;-80
2024/02/06 20:04:26;;;;;;;17.60;6.70;;;;;;;8.51;100.00;99182.63;10484646;28;20073;-81
2024/02/06 20:09:31;;;;;;;28.50;6.70;;;;;;;8.45;100.00;99148.38;10472740;28;20060;-81
2024/02/06 20:14:34;;;;;;;18.02;6.70;;;;;;;8.52;100.00;99165.59;10470977;28;20048;-81
2024/02/06 20:19:38;;;;;;;15.52;6.85;;;;;;;8.45;100.00;99175.16;10459414;28;21173;-80
2024/02/06 20:24:43;;;;;;;13.15;4.70;;;;;;;8.51;100.00;99165.75;10451036;28;20109;-80
2024/02/06 20:29:46;;;;;;;23.40;6.32;;;;;;;8.45;100.00;99171.59;10455230;28;20048;-80
2024/02/06 20:34:49;;;;;;;17.42;5.38;;;;;;;8.42;100.00;99167.41;10453279;28;20059;-80
2024/02/06 20:39:54;;;;;;;14.00;6.68;;;;;;;8.50;100.00;99162.22;10450953;28;20071;-80
2024/02/06 20:44:57;;;;;;;14.05;6.50;;;;;;;8.33;100.00;99162.88;10459737;28;20044;-80
2024/02/06 20:50:00;;;;;;;13.70;6.07;;;;;;;8.53;100.00;99163.75;10457174;28;20504;-81
2024/02/06 20:55:05;;;;;;;17.42;6.65;;;;;;;8.69;100.00;99141.78;10422691;28;20062;-80
2024/02/06 21:00:11;;;;;;;14.02;6.35;;;;;;;8.10;100.00;99149.75;10426677;28;20041;-81
2024/02/06 21:05:14;;;;;;;19.65;7.20;;;;;;;8.13;100.00;99145.97;10450225;28;20155;-80
2024/02/06 21:10:19;;;;;;;21.55;8.05;;;;;;;8.07;100.00;99119.78;10446377;28;20053;-80
2024/02/06 21:15:22;;;;;;;21.17;7.60;;;;;;;8.21;100.00;99123.88;10459737;28;20138;-79
2024/02/06 21:20:25;;;;;;;14.32;6.90;;;;;;;8.37;100.00;99127.69;10461841;28;20044;-80
2024/02/06 21:25:30;;;;;;;16.85;8.65;;;;;;;8.20;100.00;99117.69;10462034;28;20056;-79
2024/02/06 21:30:33;;;;;;;19.20;7.65;;;;;;;8.11;100.00;99115.84;10461603;28;20136;-79
2024/02/06 21:35:36;;;;;;;17.95;6.55;;;;;;;8.04;100.00;99117.38;10454025;28;21761;-79
2024/02/06 21:40:40;;;;;;;26.70;8.32;;;;;;;8.13;100.00;99098.66;10465128;28;20048;-79
2024/02/06 21:45:44;;;;;;;18.70;8.63;;;;;;;7.81;100.00;99106.06;10449527;28;20135;-79
2024/02/06 21:50:47;;;;;;;19.88;8.00;;;;;;;8.09;100.00;99115.13;10462744;28;20040;-80
2024/02/06 21:55:51;;;;;;;13.60;6.65;;;;;;;7.87;100.00;99095.69;10447830;28;20056;-79
2024/02/06 22:00:55;;;;;;;20.17;8.18;;;;;;;7.95;100.00;99085.16;10443404;28;20791;-80
2024/02/06 22:05:58;;;;;;;12.90;6.95;;;;;;;7.96;100.00;99096.69;10452862;28;20535;-80
2024/02/06 22:11:02;;;;;;;14.85;6.78;;;;;;;7.90;100.00;99067.84;10451930;28;20048;-79
2024/02/06 22:16:06;;;;;;;14.85;7.97;;;;;;;7.99;100.00;99061.63;10446214;28;20055;-80
2024/02/06 22:21:09;;;;;;;13.60;8.10;;;;;;;8.01;100.00;99066.84;10451653;28;20048;-80
2024/02/06 22:26:14;;;;;;;14.38;8.07;;;;;;;7.84;100.00;99066.53;10445557;28;20097;-80
2024/02/06 22:31:17;;;;;;;13.43;7.70;;;;;;;7.95;100.00;99047.72;10452702;28;20092;-81
2024/02/06 22:36:22;;;;;;;18.55;6.93;;;;;;;7.83;100.00;99037.28;10440514;28;20052;-81
2024/02/06 22:41:26;;;;;;;15.75;6.88;;;;;;;7.90;100.00;99039.25;10447124;28;20092;-79
2024/02/06 22:46:29;;;;;;;16.17;6.03;;;;;;;7.72;100.00;99016.88;10445218;28;20076;-81
2024/02/06 22:51:32;;;;;;;17.33;7.68;;;;;;;7.86;100.00;99013.78;10445309;28;20056;-79
2024/02/06 22:56:37;;;;;;;19.88;7.78;;;;;;;7.80;100.00;99053.59;10448913;28;20044;-79
2024/02/06 23:01:46;;;;;;;13.98;6.57;;;;;;;7.76;100.00;99033.47;10448120;28;20056;-79
2024/02/06 23:06:49;;;;;;;12.82;7.40;;;;;;;7.50;100.00;99045.53;10443688;28;20048;-79
2024/02/06 23:11:53;;;;;;;12.25;6.53;;;;;;;7.38;100.00;99016.41;10442691;28;20048;-79